Airfield :
LOGIN :

Register | Disclaimer

   EN    FR    IT 

 










Legend :    VFR   Marginal VFR   IFR   Intensive IFR   Very Intensive IFR
Visi :
Ceiling :
>= 8 km
>= 3000ft
5 to 8 km
1000 to 3000 ft
1500m to 5 km
500 to 1000 ft
800 to 1500m
200 to 500 ft
< 800m
< 200 ft
Symbols :   Thunderstorms  Fog  Heavy snow  Heavy precipitations  Wind > 20 kt
SIGMETs :     Misc.  Thunderstorms  Icing  Turbulence  Mountain Waves  Volcanic Ashes






- Airport Elevation : 86 ft


LERT - Rota Navy

CURRENT METAR :
  • 271300Z 23009KT 9999 FEW020 25/17 Q1021 NOSIG

EXPIRED METARs :
  • 271230Z 24007KT 210V280 9999 FEW020 25/18 Q1021 NOSIG
  • 271200Z 24006KT 190V270 9999 FEW020 25/19 Q1021 NOSIG
  • 271130Z 21004KT 160V250 9999 FEW010 25/19 Q1022 NOSIG
  • 271100Z 21004KT 170V270 9999 FEW010 24/19 Q1022 NOSIG
  • 271030Z 21004KT 170V270 CAVOK 24/20 Q1022 NOSIG

TAF TAF LERT
Valid from the 27 at 09:00 until the 28 at 09:00 UTC


270800Z 2709/2809 13004KT CAVOK TX26/2713Z TN16/2806Z
BECMG 2710/2712 22010KT
BECMG 2722/2724 VRB02KT
PROB30
TEMPO 2723/2809 3000 BR



MET'MAP, your aeronautical weather chart ! - Copyright ORBIFLY December 2007 - Disclaimer

ORBIFLY MET'MAP TEAM :

Programming & Development : Alexandra Zaïnal
Concept & original design : Baudouin d'Aumeries
Assistance for programming : Marc-Olivier Méhu
Technical & hardware support : Manuel Goepfert

Contact : metmap@orbifly.com




SOURCES & CREDITS :

   NOAA